Time;durP1;ratioP1;P1;durP2;ratioP2;P2;SDS_P1;SDS_P2;PMS_P1;PMS_P2;Temp;Humidity;BMP_temperature;BMP_pressure;BME280_temperature;BME280_humidity;BME280_pressure;Samples;Min_cycle;Max_cycle;Signal;HPM_P1;HPM_P2
2022/01/14 05:06:21;;;;;;;;;62.75;52.50;;;;;;;;2436035;39;10001022;-55
2022/01/14 05:12:25;;;;;;;;;63.00;49.00;;;;;;;;6493622;46;8924;-56
2022/01/14 05:18:27;;;;;;;;;59.50;47.00;;;;;;;;6494298;39;9358;-53
2022/01/14 05:24:29;;;;;;;;;48.00;46.00;;;;;;;;6495411;31;9572;-55
2022/01/14 05:30:33;;;;;;;;;68.50;53.50;;;;;;;;6493509;46;8938;-55
2022/01/14 05:36:35;;;;;;;;;55.50;45.00;;;;;;;;6494284;39;8857;-54
2022/01/14 05:42:38;;;;;;;;;61.25;53.00;;;;;;;;6494862;31;8887;-55
2022/01/14 05:48:40;;;;;;;;;68.00;53.00;;;;;;;;6493934;31;8907;-56
2022/01/14 05:54:42;;;;;;;;;67.50;49.00;;;;;;;;6494342;46;8917;-54
2022/01/14 06:00:44;;;;;;;;;68.00;53.25;;;;;;;;6493638;39;8919;-56
2022/01/14 06:06:46;;;;;;;;;63.00;51.25;;;;;;;;6494562;39;8957;-54
2022/01/14 06:12:49;;;;;;;;;69.75;56.00;;;;;;;;6493335;39;8909;-54
2022/01/14 06:18:51;;;;;;;;;47.25;45.25;;;;;;;;6493992;39;8854;-53
2022/01/14 06:24:54;;;;;;;;;58.25;45.75;;;;;;;;6494196;46;8833;-54
2022/01/14 06:30:59;;;;;;;;;67.25;51.25;;;;;;;;6493323;39;8906;-55
2022/01/14 06:37:02;;;;;;;;;77.50;60.50;;;;;;;;6493650;46;8866;-56
2022/01/14 06:43:06;;;;;;;;;69.25;52.50;;;;;;;;6493891;31;8902;-56
2022/01/14 06:49:08;;;;;;;;;65.50;51.75;;;;;;;;6492915;46;8928;-57
2022/01/14 06:55:12;;;;;;;;;66.33;51.00;;;;;;;;6494364;31;8839;-54
2022/01/14 07:01:15;;;;;;;;;65.25;50.50;;;;;;;;6493063;39;8911;-54
2022/01/14 07:07:17;;;;;;;;;69.00;55.75;;;;;;;;6494146;31;8878;-56
2022/01/14 07:13:23;;;;;;;;;67.33;53.33;;;;;;;;6492933;39;8904;-54
2022/01/14 07:19:26;;;;;;;;;66.67;50.00;;;;;;;;6493037;39;8909;-55
2022/01/14 07:25:29;;;;;;;;;71.33;54.00;;;;;;;;6493465;39;8852;-51
2022/01/14 07:31:31;;;;;;;;;70.00;54.00;;;;;;;;6493225;31;8903;-51
2022/01/14 07:37:34;;;;;;;;;65.33;51.67;;;;;;;;6492654;47;8857;-54
2022/01/14 07:43:36;;;;;;;;;67.00;54.00;;;;;;;;6493647;31;8862;-53
2022/01/14 07:49:38;;;;;;;;;66.67;48.67;;;;;;;;6492321;31;8952;-54
2022/01/14 07:55:42;;;;;;;;;70.00;55.67;;;;;;;;6492687;39;8982;-55
2022/01/14 08:01:49;;;;;;;;;62.67;51.67;;;;;;;;6492137;31;8951;-56
2022/01/14 08:07:53;;;;;;;;;63.00;49.00;;;;;;;;6492209;47;8887;-55
2022/01/14 08:13:56;;;;;;;;;72.67;57.00;;;;;;;;6491375;39;8981;-54
2022/01/14 08:19:58;;;;;;;;;74.33;57.00;;;;;;;;6491608;39;8883;-54
2022/01/14 08:26:00;;;;;;;;;70.00;54.00;;;;;;;;6492112;47;8838;-54
2022/01/14 08:32:04;;;;;;;;;61.67;46.67;;;;;;;;6491796;31;8930;-55
2022/01/14 08:38:08;;;;;;;;;53.33;44.00;;;;;;;;6492390;31;9532;-54
2022/01/14 08:44:13;;;;;;;;;61.33;52.00;;;;;;;;6493080;39;8883;-53
2022/01/14 08:50:28;;;;;;;;;60.00;51.00;;;;;;;;6491561;39;8905;-54
2022/01/14 08:56:32;;;;;;;;;60.67;49.00;;;;;;;;6493915;46;8847;-53
2022/01/14 09:02:35;;;;;;;;;59.00;47.33;;;;;;;;6493349;39;9617;-53
2022/01/14 09:08:37;;;;;;;;;53.67;46.33;;;;;;;;6491943;46;8870;-56
2022/01/14 09:14:40;;;;;;;;;62.67;48.67;;;;;;;;6491778;46;8919;-53
2022/01/14 09:20:42;;;;;;;;;66.67;52.67;;;;;;;;6492875;39;8914;-55
2022/01/14 09:26:44;;;;;;;;;67.00;52.67;;;;;;;;6492023;31;8886;-56
2022/01/14 09:32:48;;;;;;;;;57.67;48.00;;;;;;;;6491863;39;8875;-54
2022/01/14 09:38:53;;;;;;;;;61.33;49.00;;;;;;;;6491977;39;9594;-54
2022/01/14 09:44:56;;;;;;;;;52.00;46.00;;;;;;;;6491732;31;8878;-55
2022/01/14 09:51:01;;;;;;;;;54.50;48.00;;;;;;;;6492304;31;8955;-53
2022/01/14 09:57:03;;;;;;;;;42.00;39.00;;;;;;;;6492102;46;8847;-53
2022/01/14 10:03:24;;;;;;;;;47.33;42.67;;;;;;;;6491751;31;8950;-53
2022/01/14 10:09:36;;;;;;;;;49.50;45.00;;;;;;;;6489909;46;8979;-56
2022/01/14 10:15:49;;;;;;;;;63.33;49.00;;;;;;;;6489907;39;9038;-54
2022/01/14 10:21:53;;;;;;;;;62.67;49.00;;;;;;;;6492296;31;8887;-58
2022/01/14 10:27:55;;;;;;;;;59.75;49.25;;;;;;;;6491184;31;8928;-53
2022/01/14 10:34:26;;;;;;;;;47.00;44.50;;;;;;;;6490957;46;8911;-54
2022/01/14 10:40:31;;;;;;;;;59.00;48.75;;;;;;;;6491195;46;8933;-51
2022/01/14 10:46:33;;;;;;;;;45.00;41.50;;;;;;;;6491222;39;9530;-56
2022/01/14 10:52:36;;;;;;;;;59.50;48.00;;;;;;;;6491684;39;8893;-55
2022/01/14 10:58:42;;;;;;;;;67.25;52.00;;;;;;;;6491536;39;8894;-49
2022/01/14 11:05:21;;;;;;;;;51.25;45.00;;;;;;;;6492657;31;9066;-57
2022/01/14 11:11:26;;;;;;;;;47.00;42.75;;;;;;;;6489786;46;8903;-54
2022/01/14 11:17:52;;;;;;;;;48.75;40.25;;;;;;;;6491809;39;8874;-55
2022/01/14 11:23:55;;;;;;;;;46.50;43.75;;;;;;;;6491364;31;8884;-54
2022/01/14 11:30:00;;;;;;;;;30.25;25.00;;;;;;;;6491448;39;9017;-55
2022/01/14 11:36:06;;;;;;;;;53.75;42.75;;;;;;;;6491759;39;8876;-55
2022/01/14 11:42:14;;;;;;;;;54.00;44.25;;;;;;;;6490076;47;8906;-55
2022/01/14 11:48:52;;;;;;;;;54.00;47.50;;;;;;;;6491315;39;8884;-53
2022/01/14 11:54:55;;;;;;;;;47.75;43.00;;;;;;;;6490215;47;8946;-55
2022/01/14 12:00:57;;;;;;;;;52.75;43.00;;;;;;;;6490912;39;8952;-52
2022/01/14 12:07:00;;;;;;;;;46.25;42.75;;;;;;;;6491848;31;8945;-53
2022/01/14 12:13:29;;;;;;;;;45.75;42.75;;;;;;;;6490282;47;8960;-56
2022/01/14 12:19:38;;;;;;;;;33.25;31.75;;;;;;;;6491129;39;8870;-56
2022/01/14 12:26:03;;;;;;;;;37.50;35.50;;;;;;;;6491441;39;8948;-50
2022/01/14 12:32:09;;;;;;;;;45.00;40.25;;;;;;;;6492831;39;8874;-52
2022/01/14 12:38:14;;;;;;;;;46.00;40.60;;;;;;;;6132225;31;10000790;-56
2022/01/14 12:44:18;;;;;;;;;39.50;38.00;;;;;;;;6491608;46;8915;-54
2022/01/14 12:50:29;;;;;;;;;36.25;30.50;;;;;;;;6492943;31;8994;-54
2022/01/14 12:56:33;;;;;;;;;41.25;39.00;;;;;;;;6493002;31;9518;-57
2022/01/14 13:02:36;;;;;;;;;41.75;33.75;;;;;;;;6492326;46;9095;-55
2022/01/14 13:08:39;;;;;;;;;37.00;30.75;;;;;;;;6492105;46;8867;-55
2022/01/14 13:14:56;;;;;;;;;42.50;35.50;;;;;;;;6492837;39;8930;-55
2022/01/14 13:21:01;;;;;;;;;40.25;34.25;;;;;;;;6492100;39;8867;-56
2022/01/14 13:27:11;;;;;;;;;36.00;32.75;;;;;;;;6130725;36;10001318;-55
2022/01/14 13:33:15;;;;;;;;;42.50;42.50;;;;;;;;6492265;46;8843;-55
2022/01/14 13:39:21;;;;;;;;;33.00;29.50;;;;;;;;6491680;39;8864;-55
2022/01/14 13:45:25;;;;;;;;;47.25;40.25;;;;;;;;6492150;46;8850;-55
2022/01/14 13:51:28;;;;;;;;;45.50;38.50;;;;;;;;6491115;46;8915;-56
2022/01/14 13:57:30;;;;;;;;;34.25;32.50;;;;;;;;6491198;46;8870;-55
2022/01/14 14:03:47;;;;;;;;;38.50;33.25;;;;;;;;6491474;31;9117;-55
2022/01/14 14:10:34;;;;;;;;;32.67;29.33;;;;;;;;6491563;39;8834;-53
2022/01/14 14:16:40;;;;;;;;;40.25;35.50;;;;;;;;6492439;39;8998;-54
2022/01/14 14:22:42;;;;;;;;;43.50;36.25;;;;;;;;6491640;46;8854;-55
2022/01/14 14:28:45;;;;;;;;;28.75;27.00;;;;;;;;6491795;31;8906;-51
2022/01/14 14:34:49;;;;;;;;;47.00;37.25;;;;;;;;6491812;39;8894;-55
2022/01/14 14:40:58;;;;;;;;;41.50;37.00;;;;;;;;6490821;46;9072;-53
2022/01/14 14:47:01;;;;;;;;;33.25;31.75;;;;;;;;6490381;39;8961;-54
2022/01/14 14:53:05;;;;;;;;;32.75;31.25;;;;;;;;6490435;46;9018;-54
2022/01/14 14:59:08;;;;;;;;;33.25;29.50;;;;;;;;6491271;39;8846;-51
2022/01/14 15:05:11;;;;;;;;;35.67;28.00;;;;;;;;6490976;31;8982;-55
2022/01/14 15:11:15;;;;;;;;;39.00;33.00;;;;;;;;6491003;39;9652;-54
2022/01/14 15:23:22;;;;;;;;;36.75;29.75;;;;;;;;6490904;39;8854;-58
2022/01/14 15:29:25;;;;;;;;;39.75;34.00;;;;;;;;6491136;39;9512;-56
2022/01/14 15:35:27;;;;;;;;;33.25;30.25;;;;;;;;6490748;39;9505;-53
2022/01/14 15:41:32;;;;;;;;;40.00;37.75;;;;;;;;6490988;39;8895;-60
2022/01/14 15:47:34;;;;;;;;;34.50;25.25;;;;;;;;6489905;39;9998;-54
2022/01/14 15:53:38;;;;;;;;;31.50;29.50;;;;;;;;6489773;47;9048;-55
2022/01/14 15:59:40;;;;;;;;;41.25;32.25;;;;;;;;6490160;39;8846;-55
2022/01/14 16:05:45;;;;;;;;;41.75;35.50;;;;;;;;6491402;39;8967;-55
2022/01/14 16:11:47;;;;;;;;;34.50;30.50;;;;;;;;6492241;39;9565;-57
2022/01/14 16:17:51;;;;;;;;;39.25;34.00;;;;;;;;6492119;39;8866;-52
2022/01/14 16:23:55;;;;;;;;;43.00;31.50;;;;;;;;6491999;39;8878;-54
2022/01/14 16:29:58;;;;;;;;;37.00;36.00;;;;;;;;6491572;46;8884;-54
2022/01/14 16:36:02;;;;;;;;;35.00;31.00;;;;;;;;6491464;39;9384;-54
2022/01/14 16:42:08;;;;;;;;;34.75;29.25;;;;;;;;6492640;39;9442;-53
2022/01/14 16:48:12;;;;;;;;;48.00;44.00;;;;;;;;6492133;39;9525;-56
2022/01/14 16:54:14;;;;;;;;;38.75;38.75;;;;;;;;6492679;31;8904;-53
2022/01/14 17:00:17;;;;;;;;;43.25;36.25;;;;;;;;6491273;31;9014;-53
2022/01/14 17:06:20;;;;;;;;;36.25;34.75;;;;;;;;6492280;39;8962;-55
2022/01/14 17:12:25;;;;;;;;;43.75;39.25;;;;;;;;6491722;39;8870;-57
2022/01/14 17:18:29;;;;;;;;;43.75;41.00;;;;;;;;6491318;46;8880;-58
2022/01/14 17:24:32;;;;;;;;;40.25;34.25;;;;;;;;6491883;31;8862;-54
2022/01/14 17:30:35;;;;;;;;;49.25;38.25;;;;;;;;6491102;46;8872;-54
2022/01/14 17:36:37;;;;;;;;;48.50;39.25;;;;;;;;6491397;46;8949;-55
2022/01/14 17:42:43;;;;;;;;;52.75;44.25;;;;;;;;6491603;39;8903;-52
2022/01/14 17:48:47;;;;;;;;;45.75;44.25;;;;;;;;6491330;39;8842;-56
2022/01/14 17:54:58;;;;;;;;;44.50;42.50;;;;;;;;6491716;39;9507;-59
2022/01/14 18:01:04;;;;;;;;;42.50;39.75;;;;;;;;6491296;39;8970;-55
2022/01/14 18:07:06;;;;;;;;;45.00;40.25;;;;;;;;6491381;39;9026;-55
2022/01/14 18:13:23;;;;;;;;;45.25;42.00;;;;;;;;6491171;46;8905;-58
2022/01/14 18:19:26;;;;;;;;;43.25;39.75;;;;;;;;6491298;39;9536;-56
